Terminal Aerodrome Forecast
Issued by NWS Denver/Boulder, CO

Home | Current Version | Previous Version | Text Only | Print | Product List | Glossary On
Versions: 1 2 3 4 5 6 7 8 9 10 11 12 13 14 15 16 17 18 19 20 21 22 23 24 25 26 27 28 29 30 31 32 33 34 35 36 37 38 39 40 41 42 43 44 45 46 47 48 49 50
000
FTUS45 KBOU 241909 AAA
TAFDEN
TAF AMD
KDEN 241909Z 2419/2524 09012KT P6SM SCT035 BKN040 OVC100
      TEMPO 2419/2423 4SM TSRAGR BKN025CB
     FM250000 11008KT P6SM SCT030 OVC070
      TEMPO 2500/2503 5SM -TSRAGR BKN025CB
     FM250300 31007KT P6SM SCT050 BKN100
     FM250700 22008KT P6SM SCT080 BKN220
     FM251400 VRB05KT P6SM SCT080 BKN220
     FM251900 07008KT P6SM SCT040 BKN100
      TEMPO 2520/2524 5SM -TSRA BKN030CB=

USA.gov is the U.S. government's official web portal to all federal, state and local government web resources and services.